This is the latest recevied weather packets stored in our database for station/object ZL3GL-4. If no packets are shown the sender has not sent any weather packets the latest 10 day(s).
| Time | Temp. | Humidity | Pressure | Rain* | Wind** | Luminosity | Snow |
|---|---|---|---|---|---|---|---|
| 1777457518 | 12.78° C | 59% | 1024.7 hPa | 0 mm | 4.47 m/s, 205° | - | - |
| 1777456676 | 12.78° C | 60% | 1024 hPa | 0 mm | 6.71 m/s, 193° | - | - |
| 1777455833 | 12.78° C | 68% | 1023.6 hPa | 0 mm | 7.15 m/s, 183° | - | - |
| 1777454988 | 12.78° C | 69% | 1023.1 hPa | 0 mm | 7.15 m/s, 190° | - | - |
| 1777454149 | 13.33° C | 71% | 1022.8 hPa | 0 mm | 6.71 m/s, 221° | - | - |
| 1777452460 | 13.33° C | 76% | 1022 hPa | 0 mm | 6.26 m/s, 193° | - | - |
| 1777451617 | 12.78° C | 77% | 1021.7 hPa | 0 mm | 5.36 m/s, 201° | - | - |
| 1777450777 | 12.78° C | 77% | 1021.4 hPa | 0 mm | 4.92 m/s, 174° | - | - |
| 1777449931 | 13.33° C | 75% | 1021.2 hPa | 0 mm | 4.02 m/s, 181° | - | - |
| 1777449088 | 13.33° C | 77% | 1021 hPa | 0 mm | 3.13 m/s, 156° | - | - |
| 1777448245 | 13.89° C | 76% | 1020.3 hPa | 0 mm | 5.81 m/s, 172° | - | - |
| 1777447400 | 15° C | 72% | 1020.3 hPa | 0 mm | 5.81 m/s, 181° | - | - |
| 1777446556 | 18.33° C | 46% | 1019 hPa | 0 mm | 3.13 m/s, 257° | - | - |
| 1777445712 | 18.89° C | 42% | 1018.4 hPa | 0 mm | 4.02 m/s, 266° | - | - |
| 1777444872 | 18.89° C | 41% | 1017.7 hPa | 0 mm | 5.36 m/s, 253° | - | - |
| 1777444031 | 18.89° C | 42% | 1017.1 hPa | 0 mm | 5.81 m/s, 277° | - | - |
| 1777441499 | 18.33° C | 48% | 1016.1 hPa | 0 mm | 3.58 m/s, 271° | - | - |
| 1777440655 | 18.33° C | 47% | 1016.1 hPa | 0 mm | 4.02 m/s, 325° | - | - |
| 1777439812 | 18.33° C | 49% | 1015.6 hPa | 0 mm | 4.47 m/s, 256° | - | - |
| 1777438968 | 18.33° C | 47% | 1015.4 hPa | 0 mm | 4.47 m/s, 255° | - | - |
| 1777438125 | 17.78° C | 53% | 1015 hPa | 0 mm | 4.02 m/s, 266° | - | - |
| 1777437281 | 17.22° C | 58% | 1015.4 hPa | 0 mm | 3.13 m/s, 295° | - | - |
| 1777436437 | 15° C | 79% | 1015.4 hPa | 0 mm | 4.02 m/s, 293° | - | - |
| 1777435594 | 15° C | 97% | 1015.6 hPa | 0 mm | 0.89 m/s, 139° | - | - |
| 1777434750 | 15.56° C | 97% | 1015.6 hPa | 0 mm | 0.89 m/s, 125° | - | - |
* Rain latest hour (hover to see other rain measurements)
** Current wind speed in m/s (hover to see current wind gust speed)